sensor_id;sensor_type;location;lat;lon;timestamp;temperature;humidity
65598;SHT31;52267;51.984;20.956;2023-12-28T00:00:29;0.24;87.31
65598;SHT31;52267;51.984;20.956;2023-12-28T00:03:16;0.23;87.20
65598;SHT31;52267;51.984;20.956;2023-12-28T00:05:43;0.22;86.76
65598;SHT31;52267;51.984;20.956;2023-12-28T00:08:10;0.19;87.54
65598;SHT31;52267;51.984;20.956;2023-12-28T00:10:37;0.15;87.97
65598;SHT31;52267;51.984;20.956;2023-12-28T00:13:04;0.15;87.84
65598;SHT31;52267;51.984;20.956;2023-12-28T00:15:31;0.12;87.87
65598;SHT31;52267;51.984;20.956;2023-12-28T00:17:58;0.10;87.13
65598;SHT31;52267;51.984;20.956;2023-12-28T00:20:25;0.09;87.54
65598;SHT31;52267;51.984;20.956;2023-12-28T00:22:52;0.08;86.88
65598;SHT31;52267;51.984;20.956;2023-12-28T00:25:19;0.07;86.90
65598;SHT31;52267;51.984;20.956;2023-12-28T00:27:46;0.05;87.53
65598;SHT31;52267;51.984;20.956;2023-12-28T00:30:13;0.02;88.57
65598;SHT31;52267;51.984;20.956;2023-12-28T00:32:40;0.01;88.59
65598;SHT31;52267;51.984;20.956;2023-12-28T00:35:10;0.03;88.73
65598;SHT31;52267;51.984;20.956;2023-12-28T00:37:39;0.05;88.86
65598;SHT31;52267;51.984;20.956;2023-12-28T00:40:06;0.05;88.89
65598;SHT31;52267;51.984;20.956;2023-12-28T00:42:34;0.05;89.38
65598;SHT31;52267;51.984;20.956;2023-12-28T00:45:01;0.07;89.27
65598;SHT31;52267;51.984;20.956;2023-12-28T00:47:32;0.06;89.34
65598;SHT31;52267;51.984;20.956;2023-12-28T00:49:59;0.06;89.33
65598;SHT31;52267;51.984;20.956;2023-12-28T00:52:26;0.07;89.15
65598;SHT31;52267;51.984;20.956;2023-12-28T00:54:53;0.07;89.34
65598;SHT31;52267;51.984;20.956;2023-12-28T00:57:23;0.07;89.59
65598;SHT31;52267;51.984;20.956;2023-12-28T00:59:50;0.08;89.51
65598;SHT31;52267;51.984;20.956;2023-12-28T01:02:17;0.09;89.15
65598;SHT31;52267;51.984;20.956;2023-12-28T01:04:44;0.09;88.95
65598;SHT31;52267;51.984;20.956;2023-12-28T01:07:11;0.09;88.91
65598;SHT31;52267;51.984;20.956;2023-12-28T01:09:38;0.09;88.90
65598;SHT31;52267;51.984;20.956;2023-12-28T01:12:05;0.09;88.79
65598;SHT31;52267;51.984;20.956;2023-12-28T01:14:32;0.09;88.74
65598;SHT31;52267;51.984;20.956;2023-12-28T01:17:00;0.10;88.66
65598;SHT31;52267;51.984;20.956;2023-12-28T01:19:27;0.10;88.43
65598;SHT31;52267;51.984;20.956;2023-12-28T01:21:54;0.09;88.44
65598;SHT31;52267;51.984;20.956;2023-12-28T01:24:21;0.08;88.38
65598;SHT31;52267;51.984;20.956;2023-12-28T01:26:48;0.06;88.52
65598;SHT31;52267;51.984;20.956;2023-12-28T01:29:16;0.08;88.40
65598;SHT31;52267;51.984;20.956;2023-12-28T01:31:45;0.08;88.41
65598;SHT31;52267;51.984;20.956;2023-12-28T01:34:12;0.06;88.33
65598;SHT31;52267;51.984;20.956;2023-12-28T01:36:39;0.05;88.30
65598;SHT31;52267;51.984;20.956;2023-12-28T01:39:10;0.04;88.27
65598;SHT31;52267;51.984;20.956;2023-12-28T01:41:37;0.04;88.21
65598;SHT31;52267;51.984;20.956;2023-12-28T01:44:04;0.05;88.28
65598;SHT31;52267;51.984;20.956;2023-12-28T01:46:31;0.07;88.04
65598;SHT31;52267;51.984;20.956;2023-12-28T01:48:59;0.08;87.99
65598;SHT31;52267;51.984;20.956;2023-12-28T01:51:29;0.10;87.86
65598;SHT31;52267;51.984;20.956;2023-12-28T01:53:56;0.11;88.04
65598;SHT31;52267;51.984;20.956;2023-12-28T01:56:24;0.13;88.09
65598;SHT31;52267;51.984;20.956;2023-12-28T01:58:51;0.16;88.14
65598;SHT31;52267;51.984;20.956;2023-12-28T02:01:20;0.17;88.17
65598;SHT31;52267;51.984;20.956;2023-12-28T02:03:47;0.20;88.19
65598;SHT31;52267;51.984;20.956;2023-12-28T02:06:14;0.23;88.25
65598;SHT31;52267;51.984;20.956;2023-12-28T02:08:42;0.25;88.22
65598;SHT31;52267;51.984;20.956;2023-12-28T02:11:09;0.30;88.07
65598;SHT31;52267;51.984;20.956;2023-12-28T02:13:37;0.33;88.09
65598;SHT31;52267;51.984;20.956;2023-12-28T02:16:10;0.35;88.03
65598;SHT31;52267;51.984;20.956;2023-12-28T02:18:43;0.40;87.96
65598;SHT31;52267;51.984;20.956;2023-12-28T02:21:15;0.42;88.05
65598;SHT31;52267;51.984;20.956;2023-12-28T02:23:46;0.44;88.01
65598;SHT31;52267;51.984;20.956;2023-12-28T02:26:15;0.45;87.95
65598;SHT31;52267;51.984;20.956;2023-12-28T02:28:46;0.45;87.64
65598;SHT31;52267;51.984;20.956;2023-12-28T02:31:19;0.46;87.61
65598;SHT31;52267;51.984;20.956;2023-12-28T02:34:12;0.45;87.68
65598;SHT31;52267;51.984;20.956;2023-12-28T02:36:55;0.46;87.50
65598;SHT31;52267;51.984;20.956;2023-12-28T02:39:26;0.46;87.51
65598;SHT31;52267;51.984;20.956;2023-12-28T02:41:56;0.47;87.29
65598;SHT31;52267;51.984;20.956;2023-12-28T02:44:24;0.52;87.01
65598;SHT31;52267;51.984;20.956;2023-12-28T02:46:51;0.56;87.07
65598;SHT31;52267;51.984;20.956;2023-12-28T02:49:18;0.58;87.12
65598;SHT31;52267;51.984;20.956;2023-12-28T02:51:45;0.61;87.20
65598;SHT31;52267;51.984;20.956;2023-12-28T02:54:12;0.64;87.02
65598;SHT31;52267;51.984;20.956;2023-12-28T02:56:40;0.65;86.96
65598;SHT31;52267;51.984;20.956;2023-12-28T02:59:07;0.66;86.97
65598;SHT31;52267;51.984;20.956;2023-12-28T03:01:34;0.68;86.88
65598;SHT31;52267;51.984;20.956;2023-12-28T03:04:01;0.67;86.61
65598;SHT31;52267;51.984;20.956;2023-12-28T03:06:28;0.66;86.57
65598;SHT31;52267;51.984;20.956;2023-12-28T03:08:58;0.66;86.50
65598;SHT31;52267;51.984;20.956;2023-12-28T03:11:25;0.65;86.32
65598;SHT31;52267;51.984;20.956;2023-12-28T03:13:52;0.62;86.36
65598;SHT31;52267;51.984;20.956;2023-12-28T03:16:19;0.61;86.27
65598;SHT31;52267;51.984;20.956;2023-12-28T03:18:46;0.60;86.17
65598;SHT31;52267;51.984;20.956;2023-12-28T03:21:13;0.59;86.14
65598;SHT31;52267;51.984;20.956;2023-12-28T03:23:40;0.57;86.13
65598;SHT31;52267;51.984;20.956;2023-12-28T03:26:07;0.56;86.12
65598;SHT31;52267;51.984;20.956;2023-12-28T03:28:34;0.56;86.01
65598;SHT31;52267;51.984;20.956;2023-12-28T03:31:04;0.55;86.00
65598;SHT31;52267;51.984;20.956;2023-12-28T03:33:31;0.54;86.07
65598;SHT31;52267;51.984;20.956;2023-12-28T03:35:58;0.53;86.01
65598;SHT31;52267;51.984;20.956;2023-12-28T03:38:27;0.52;86.04
65598;SHT31;52267;51.984;20.956;2023-12-28T03:40:54;0.50;86.08
65598;SHT31;52267;51.984;20.956;2023-12-28T03:43:21;0.49;85.91
65598;SHT31;52267;51.984;20.956;2023-12-28T03:45:48;0.50;85.87
65598;SHT31;52267;51.984;20.956;2023-12-28T03:48:18;0.50;85.81
65598;SHT31;52267;51.984;20.956;2023-12-28T03:50:45;0.48;85.85
65598;SHT31;52267;51.984;20.956;2023-12-28T03:53:12;0.47;85.93
65598;SHT31;52267;51.984;20.956;2023-12-28T03:55:42;0.47;85.88
65598;SHT31;52267;51.984;20.956;2023-12-28T03:58:09;0.46;85.81
65598;SHT31;52267;51.984;20.956;2023-12-28T04:00:36;0.46;85.80
65598;SHT31;52267;51.984;20.956;2023-12-28T04:03:06;0.45;85.80
65598;SHT31;52267;51.984;20.956;2023-12-28T04:05:33;0.44;85.79
65598;SHT31;52267;51.984;20.956;2023-12-28T04:08:00;0.43;85.81
65598;SHT31;52267;51.984;20.956;2023-12-28T04:10:28;0.41;85.70
65598;SHT31;52267;51.984;20.956;2023-12-28T04:12:58;0.40;85.72
65598;SHT31;52267;51.984;20.956;2023-12-28T04:15:27;0.41;85.56
65598;SHT31;52267;51.984;20.956;2023-12-28T04:17:55;0.39;85.48
65598;SHT31;52267;51.984;20.956;2023-12-28T04:20:23;0.38;85.50
65598;SHT31;52267;51.984;20.956;2023-12-28T04:22:50;0.35;85.63
65598;SHT31;52267;51.984;20.956;2023-12-28T04:25:17;0.35;85.68
65598;SHT31;52267;51.984;20.956;2023-12-28T04:27:44;0.36;85.56
65598;SHT31;52267;51.984;20.956;2023-12-28T04:30:11;0.36;85.47
65598;SHT31;52267;51.984;20.956;2023-12-28T04:32:39;0.35;85.53
65598;SHT31;52267;51.984;20.956;2023-12-28T04:35:06;0.35;85.51
65598;SHT31;52267;51.984;20.956;2023-12-28T04:37:33;0.34;85.60
65598;SHT31;52267;51.984;20.956;2023-12-28T04:40:01;0.33;85.58
65598;SHT31;52267;51.984;20.956;2023-12-28T04:42:30;0.32;85.57
65598;SHT31;52267;51.984;20.956;2023-12-28T04:44:57;0.32;85.58
65598;SHT31;52267;51.984;20.956;2023-12-28T04:47:24;0.32;85.50
65598;SHT31;52267;51.984;20.956;2023-12-28T04:49:51;0.30;85.50
65598;SHT31;52267;51.984;20.956;2023-12-28T04:52:18;0.30;85.49
65598;SHT31;52267;51.984;20.956;2023-12-28T04:54:45;0.30;85.52
65598;SHT31;52267;51.984;20.956;2023-12-28T04:57:17;0.30;85.50
65598;SHT31;52267;51.984;20.956;2023-12-28T04:59:44;0.30;85.47
65598;SHT31;52267;51.984;20.956;2023-12-28T05:02:11;0.31;85.25
65598;SHT31;52267;51.984;20.956;2023-12-28T05:04:38;0.32;85.32
65598;SHT31;52267;51.984;20.956;2023-12-28T05:07:05;0.32;85.32
65598;SHT31;52267;51.984;20.956;2023-12-28T05:09:32;0.32;85.30
65598;SHT31;52267;51.984;20.956;2023-12-28T05:12:00;0.32;85.28
65598;SHT31;52267;51.984;20.956;2023-12-28T05:14:27;0.34;85.19
65598;SHT31;52267;51.984;20.956;2023-12-28T05:16:54;0.34;85.18
65598;SHT31;52267;51.984;20.956;2023-12-28T05:19:21;0.33;85.19
65598;SHT31;52267;51.984;20.956;2023-12-28T05:21:48;0.35;85.18
65598;SHT31;52267;51.984;20.956;2023-12-28T05:24:15;0.37;85.19
65598;SHT31;52267;51.984;20.956;2023-12-28T05:26:42;0.38;85.09
65598;SHT31;52267;51.984;20.956;2023-12-28T05:29:09;0.41;85.00
65598;SHT31;52267;51.984;20.956;2023-12-28T05:31:36;0.43;84.91
65598;SHT31;52267;51.984;20.956;2023-12-28T05:34:03;0.44;84.80
65598;SHT31;52267;51.984;20.956;2023-12-28T05:36:31;0.47;84.75
65598;SHT31;52267;51.984;20.956;2023-12-28T05:38:58;0.49;84.62
65598;SHT31;52267;51.984;20.956;2023-12-28T05:41:25;0.50;84.54
65598;SHT31;52267;51.984;20.956;2023-12-28T05:43:52;0.53;84.50
65598;SHT31;52267;51.984;20.956;2023-12-28T05:46:19;0.52;84.50
65598;SHT31;52267;51.984;20.956;2023-12-28T05:48:46;0.51;84.50
65598;SHT31;52267;51.984;20.956;2023-12-28T05:51:14;0.52;84.46
65598;SHT31;52267;51.984;20.956;2023-12-28T05:53:41;0.53;84.40
65598;SHT31;52267;51.984;20.956;2023-12-28T05:56:08;0.55;84.40
65598;SHT31;52267;51.984;20.956;2023-12-28T05:58:35;0.54;84.40
65598;SHT31;52267;51.984;20.956;2023-12-28T06:01:03;0.54;84.40
65598;SHT31;52267;51.984;20.956;2023-12-28T06:03:31;0.54;84.40
65598;SHT31;52267;51.984;20.956;2023-12-28T06:06:01;0.54;84.40
65598;SHT31;52267;51.984;20.956;2023-12-28T06:08:28;0.56;84.39
65598;SHT31;52267;51.984;20.956;2023-12-28T06:10:55;0.57;84.41
65598;SHT31;52267;51.984;20.956;2023-12-28T06:13:22;0.56;84.42
65598;SHT31;52267;51.984;20.956;2023-12-28T06:15:49;0.58;84.40
65598;SHT31;52267;51.984;20.956;2023-12-28T06:18:16;0.58;84.39
65598;SHT31;52267;51.984;20.956;2023-12-28T06:20:43;0.58;84.39
65598;SHT31;52267;51.984;20.956;2023-12-28T06:23:10;0.59;84.33
65598;SHT31;52267;51.984;20.956;2023-12-28T06:25:37;0.58;84.40
65598;SHT31;52267;51.984;20.956;2023-12-28T06:28:04;0.58;84.40
65598;SHT31;52267;51.984;20.956;2023-12-28T06:30:31;0.59;84.40
65598;SHT31;52267;51.984;20.956;2023-12-28T06:33:04;0.61;84.39
65598;SHT31;52267;51.984;20.956;2023-12-28T06:35:32;0.63;84.37
65598;SHT31;52267;51.984;20.956;2023-12-28T06:37:59;0.67;84.38
65598;SHT31;52267;51.984;20.956;2023-12-28T06:40:26;0.69;84.38
65598;SHT31;52267;51.984;20.956;2023-12-28T06:42:53;0.71;84.30
65598;SHT31;52267;51.984;20.956;2023-12-28T06:45:20;0.74;84.28
65598;SHT31;52267;51.984;20.956;2023-12-28T06:47:49;0.76;84.21
65598;SHT31;52267;51.984;20.956;2023-12-28T06:50:16;0.77;84.17
65598;SHT31;52267;51.984;20.956;2023-12-28T06:52:43;0.77;84.20
65598;SHT31;52267;51.984;20.956;2023-12-28T06:55:10;0.79;84.22
65598;SHT31;52267;51.984;20.956;2023-12-28T06:57:37;0.80;84.20
65598;SHT31;52267;51.984;20.956;2023-12-28T07:00:04;0.80;84.19
65598;SHT31;52267;51.984;20.956;2023-12-28T07:02:32;0.82;84.21
65598;SHT31;52267;51.984;20.956;2023-12-28T07:04:59;0.84;84.20
65598;SHT31;52267;51.984;20.956;2023-12-28T07:07:26;0.86;84.21
65598;SHT31;52267;51.984;20.956;2023-12-28T07:09:53;0.86;84.22
65598;SHT31;52267;51.984;20.956;2023-12-28T07:12:20;0.89;84.23
65598;SHT31;52267;51.984;20.956;2023-12-28T07:14:47;0.91;84.26
65598;SHT31;52267;51.984;20.956;2023-12-28T07:17:14;0.95;84.20
65598;SHT31;52267;51.984;20.956;2023-12-28T07:19:43;0.98;84.12
65598;SHT31;52267;51.984;20.956;2023-12-28T07:22:10;1.02;84.14
65598;SHT31;52267;51.984;20.956;2023-12-28T07:24:37;1.06;84.15
65598;SHT31;52267;51.984;20.956;2023-12-28T07:27:04;1.11;84.20
65598;SHT31;52267;51.984;20.956;2023-12-28T07:29:32;1.17;84.14
65598;SHT31;52267;51.984;20.956;2023-12-28T07:31:59;1.23;84.00
65598;SHT31;52267;51.984;20.956;2023-12-28T07:34:26;1.32;83.92
65598;SHT31;52267;51.984;20.956;2023-12-28T07:36:54;1.50;83.77
65598;SHT31;52267;51.984;20.956;2023-12-28T07:39:21;1.80;83.32
65598;SHT31;52267;51.984;20.956;2023-12-28T07:41:48;1.92;83.06
65598;SHT31;52267;51.984;20.956;2023-12-28T07:44:16;2.04;82.82
65598;SHT31;52267;51.984;20.956;2023-12-28T07:46:43;2.08;82.76
65598;SHT31;52267;51.984;20.956;2023-12-28T07:49:10;2.14;82.68
65598;SHT31;52267;51.984;20.956;2023-12-28T07:51:37;2.24;82.61
65598;SHT31;52267;51.984;20.956;2023-12-28T07:54:04;2.33;82.60
65598;SHT31;52267;51.984;20.956;2023-12-28T07:56:31;2.44;82.37
65598;SHT31;52267;51.984;20.956;2023-12-28T07:58:58;2.65;82.18
65598;SHT31;52267;51.984;20.956;2023-12-28T08:01:25;2.81;81.94
65598;SHT31;52267;51.984;20.956;2023-12-28T08:03:52;2.92;81.78
65598;SHT31;52267;51.984;20.956;2023-12-28T08:06:20;3.04;81.53
65598;SHT31;52267;51.984;20.956;2023-12-28T08:08:47;3.13;81.39
65598;SHT31;52267;51.984;20.956;2023-12-28T08:11:14;3.19;81.37
65598;SHT31;52267;51.984;20.956;2023-12-28T08:13:41;3.29;81.35
65598;SHT31;52267;51.984;20.956;2023-12-28T08:16:08;3.36;81.09
65598;SHT31;52267;51.984;20.956;2023-12-28T08:18:35;3.45;81.10
65598;SHT31;52267;51.984;20.956;2023-12-28T08:21:02;3.57;81.07
65598;SHT31;52267;51.984;20.956;2023-12-28T08:23:30;3.71;80.93
65598;SHT31;52267;51.984;20.956;2023-12-28T08:25:57;3.86;80.65
65598;SHT31;52267;51.984;20.956;2023-12-28T08:28:24;4.00;80.45
65598;SHT31;52267;51.984;20.956;2023-12-28T08:30:51;4.12;80.20
65598;SHT31;52267;51.984;20.956;2023-12-28T08:33:18;4.31;79.94
65598;SHT31;52267;51.984;20.956;2023-12-28T08:35:45;4.46;79.57
65598;SHT31;52267;51.984;20.956;2023-12-28T08:38:12;4.59;79.21
65598;SHT31;52267;51.984;20.956;2023-12-28T08:40:39;4.74;79.20
65598;SHT31;52267;51.984;20.956;2023-12-28T08:43:06;4.95;78.59
65598;SHT31;52267;51.984;20.956;2023-12-28T08:45:33;5.09;78.38
65598;SHT31;52267;51.984;20.956;2023-12-28T08:48:02;5.09;78.16
65598;SHT31;52267;51.984;20.956;2023-12-28T08:50:30;5.11;78.37
65598;SHT31;52267;51.984;20.956;2023-12-28T08:52:57;5.13;78.04
65598;SHT31;52267;51.984;20.956;2023-12-28T08:55:24;5.21;77.58
65598;SHT31;52267;51.984;20.956;2023-12-28T08:57:51;5.33;77.99
65598;SHT31;52267;51.984;20.956;2023-12-28T09:00:18;5.41;77.85
65598;SHT31;52267;51.984;20.956;2023-12-28T09:02:45;5.47;77.95
65598;SHT31;52267;51.984;20.956;2023-12-28T09:05:12;5.52;77.41
65598;SHT31;52267;51.984;20.956;2023-12-28T09:07:39;5.60;77.39
65598;SHT31;52267;51.984;20.956;2023-12-28T09:10:10;5.66;77.65
65598;SHT31;52267;51.984;20.956;2023-12-28T09:12:39;5.73;77.59
65598;SHT31;52267;51.984;20.956;2023-12-28T09:15:07;5.80;77.46
65598;SHT31;52267;51.984;20.956;2023-12-28T09:17:35;5.88;77.53
65598;SHT31;52267;51.984;20.956;2023-12-28T09:20:02;5.94;77.08
65598;SHT31;52267;51.984;20.956;2023-12-28T09:22:30;6.02;76.91
65598;SHT31;52267;51.984;20.956;2023-12-28T09:24:57;6.10;76.58
65598;SHT31;52267;51.984;20.956;2023-12-28T09:27:24;6.18;76.63
65598;SHT31;52267;51.984;20.956;2023-12-28T09:29:51;6.24;76.07
65598;SHT31;52267;51.984;20.956;2023-12-28T09:32:21;6.30;76.12
65598;SHT31;52267;51.984;20.956;2023-12-28T09:34:48;6.36;75.75
65598;SHT31;52267;51.984;20.956;2023-12-28T09:37:15;6.40;75.80
65598;SHT31;52267;51.984;20.956;2023-12-28T09:39:42;6.46;76.08
65598;SHT31;52267;51.984;20.956;2023-12-28T09:42:20;6.52;75.84
65598;SHT31;52267;51.984;20.956;2023-12-28T09:44:56;6.58;75.82
65598;SHT31;52267;51.984;20.956;2023-12-28T09:47:24;6.63;75.70
65598;SHT31;52267;51.984;20.956;2023-12-28T09:49:51;6.66;75.86
65598;SHT31;52267;51.984;20.956;2023-12-28T09:52:18;6.70;75.25
65598;SHT31;52267;51.984;20.956;2023-12-28T09:54:45;6.74;75.54
65598;SHT31;52267;51.984;20.956;2023-12-28T09:57:12;6.79;75.03
65598;SHT31;52267;51.984;20.956;2023-12-28T09:59:39;6.85;74.97
65598;SHT31;52267;51.984;20.956;2023-12-28T10:02:07;6.91;75.18
65598;SHT31;52267;51.984;20.956;2023-12-28T10:04:34;6.95;75.19
65598;SHT31;52267;51.984;20.956;2023-12-28T10:07:02;6.99;74.75
65598;SHT31;52267;51.984;20.956;2023-12-28T10:09:30;7.03;74.54
65598;SHT31;52267;51.984;20.956;2023-12-28T10:11:57;7.05;74.59
65598;SHT31;52267;51.984;20.956;2023-12-28T10:14:25;7.08;74.05
65598;SHT31;52267;51.984;20.956;2023-12-28T10:16:52;7.11;73.97
65598;SHT31;52267;51.984;20.956;2023-12-28T10:19:22;7.15;73.95
65598;SHT31;52267;51.984;20.956;2023-12-28T10:21:50;7.20;73.64
65598;SHT31;52267;51.984;20.956;2023-12-28T10:24:17;7.23;73.03
65598;SHT31;52267;51.984;20.956;2023-12-28T10:26:44;7.25;73.76
65598;SHT31;52267;51.984;20.956;2023-12-28T10:29:11;7.30;73.39
65598;SHT31;52267;51.984;20.956;2023-12-28T10:31:41;7.33;73.71
65598;SHT31;52267;51.984;20.956;2023-12-28T10:34:10;7.36;73.51
65598;SHT31;52267;51.984;20.956;2023-12-28T10:36:37;7.38;73.11
65598;SHT31;52267;51.984;20.956;2023-12-28T10:39:06;7.41;73.35
65598;SHT31;52267;51.984;20.956;2023-12-28T10:41:37;7.46;73.40
65598;SHT31;52267;51.984;20.956;2023-12-28T10:44:07;7.53;73.32
65598;SHT31;52267;51.984;20.956;2023-12-28T10:46:39;7.55;73.55
65598;SHT31;52267;51.984;20.956;2023-12-28T10:49:09;7.58;73.71
65598;SHT31;52267;51.984;20.956;2023-12-28T10:51:40;7.60;73.71
65598;SHT31;52267;51.984;20.956;2023-12-28T10:54:16;7.63;73.55
65598;SHT31;52267;51.984;20.956;2023-12-28T10:56:54;7.67;73.47
65598;SHT31;52267;51.984;20.956;2023-12-28T10:59:53;7.68;73.74
65598;SHT31;52267;51.984;20.956;2023-12-28T11:02:48;7.71;73.21
65598;SHT31;52267;51.984;20.956;2023-12-28T11:05:20;7.73;73.07
65598;SHT31;52267;51.984;20.956;2023-12-28T11:07:48;7.73;73.41
65598;SHT31;52267;51.984;20.956;2023-12-28T11:10:20;7.74;73.25
65598;SHT31;52267;51.984;20.956;2023-12-28T11:12:51;7.75;73.10
65598;SHT31;52267;51.984;20.956;2023-12-28T11:15:19;7.76;73.06
65598;SHT31;52267;51.984;20.956;2023-12-28T11:17:47;7.74;72.81
65598;SHT31;52267;51.984;20.956;2023-12-28T11:20:14;7.74;73.30
65598;SHT31;52267;51.984;20.956;2023-12-28T11:22:42;7.70;73.48
65598;SHT31;52267;51.984;20.956;2023-12-28T11:25:16;7.66;73.49
65598;SHT31;52267;51.984;20.956;2023-12-28T11:27:45;7.62;73.90
65598;SHT31;52267;51.984;20.956;2023-12-28T11:30:13;7.55;74.28
65598;SHT31;52267;51.984;20.956;2023-12-28T11:32:40;7.50;74.84
65598;SHT31;52267;51.984;20.956;2023-12-28T11:35:12;7.44;75.08
65598;SHT31;52267;51.984;20.956;2023-12-28T11:37:44;7.40;75.15
65598;SHT31;52267;51.984;20.956;2023-12-28T11:40:18;7.38;75.09
65598;SHT31;52267;51.984;20.956;2023-12-28T11:42:49;7.38;75.26
65598;SHT31;52267;51.984;20.956;2023-12-28T11:45:18;7.37;75.32
65598;SHT31;52267;51.984;20.956;2023-12-28T11:47:47;7.37;75.53
65598;SHT31;52267;51.984;20.956;2023-12-28T11:50:14;7.37;75.69
65598;SHT31;52267;51.984;20.956;2023-12-28T11:52:41;7.36;75.97
65598;SHT31;52267;51.984;20.956;2023-12-28T11:55:08;7.36;76.10
65598;SHT31;52267;51.984;20.956;2023-12-28T11:57:36;7.39;76.23
65598;SHT31;52267;51.984;20.956;2023-12-28T12:00:04;7.39;76.51
65598;SHT31;52267;51.984;20.956;2023-12-28T12:02:33;7.40;76.47
65598;SHT31;52267;51.984;20.956;2023-12-28T12:05:00;7.43;76.53
65598;SHT31;52267;51.984;20.956;2023-12-28T12:07:29;7.46;76.54
65598;SHT31;52267;51.984;20.956;2023-12-28T12:09:59;7.51;76.12
65598;SHT31;52267;51.984;20.956;2023-12-28T12:12:26;7.55;76.11
65598;SHT31;52267;51.984;20.956;2023-12-28T12:14:54;7.58;76.09
65598;SHT31;52267;51.984;20.956;2023-12-28T12:17:22;7.61;75.99
65598;SHT31;52267;51.984;20.956;2023-12-28T12:19:49;7.62;75.94
65598;SHT31;52267;51.984;20.956;2023-12-28T12:22:19;7.65;76.01
65598;SHT31;52267;51.984;20.956;2023-12-28T12:24:48;7.68;75.90
65598;SHT31;52267;51.984;20.956;2023-12-28T12:27:23;7.70;75.87
65598;SHT31;52267;51.984;20.956;2023-12-28T12:29:50;7.70;76.04
65598;SHT31;52267;51.984;20.956;2023-12-28T12:32:18;7.71;75.88
65598;SHT31;52267;51.984;20.956;2023-12-28T12:34:45;7.74;75.96
65598;SHT31;52267;51.984;20.956;2023-12-28T12:37:12;7.75;76.10
65598;SHT31;52267;51.984;20.956;2023-12-28T12:39:39;7.76;76.05
65598;SHT31;52267;51.984;20.956;2023-12-28T12:42:06;7.77;76.05
65598;SHT31;52267;51.984;20.956;2023-12-28T12:44:33;7.80;76.04
65598;SHT31;52267;51.984;20.956;2023-12-28T12:47:00;7.84;75.96
65598;SHT31;52267;51.984;20.956;2023-12-28T12:49:28;7.85;75.96
65598;SHT31;52267;51.984;20.956;2023-12-28T12:51:56;7.89;75.94
65598;SHT31;52267;51.984;20.956;2023-12-28T12:54:23;7.90;75.96
65598;SHT31;52267;51.984;20.956;2023-12-28T12:56:50;7.93;75.96
65598;SHT31;52267;51.984;20.956;2023-12-28T12:59:19;7.95;75.98
65598;SHT31;52267;51.984;20.956;2023-12-28T13:01:46;7.97;76.01
65598;SHT31;52267;51.984;20.956;2023-12-28T13:04:16;7.99;76.03
65598;SHT31;52267;51.984;20.956;2023-12-28T13:06:43;8.02;75.98
65598;SHT31;52267;51.984;20.956;2023-12-28T13:09:11;8.05;76.06
65598;SHT31;52267;51.984;20.956;2023-12-28T13:11:38;8.07;76.03
65598;SHT31;52267;51.984;20.956;2023-12-28T13:14:05;8.10;76.06
65598;SHT31;52267;51.984;20.956;2023-12-28T13:16:32;8.12;76.16
65598;SHT31;52267;51.984;20.956;2023-12-28T13:18:59;8.13;76.09
65598;SHT31;52267;51.984;20.956;2023-12-28T13:21:27;8.15;76.14
65598;SHT31;52267;51.984;20.956;2023-12-28T13:23:54;8.18;76.04
65598;SHT31;52267;51.984;20.956;2023-12-28T13:26:21;8.19;75.98
65598;SHT31;52267;51.984;20.956;2023-12-28T13:28:48;8.21;76.02
65598;SHT31;52267;51.984;20.956;2023-12-28T13:31:15;8.23;75.96
65598;SHT31;52267;51.984;20.956;2023-12-28T13:33:44;8.24;76.00
65598;SHT31;52267;51.984;20.956;2023-12-28T13:36:12;8.26;75.93
65598;SHT31;52267;51.984;20.956;2023-12-28T13:38:39;8.28;75.81
65598;SHT31;52267;51.984;20.956;2023-12-28T13:41:06;8.28;75.77
65598;SHT31;52267;51.984;20.956;2023-12-28T13:43:33;8.29;75.84
65598;SHT31;52267;51.984;20.956;2023-12-28T13:46:00;8.29;75.66
65598;SHT31;52267;51.984;20.956;2023-12-28T13:48:33;8.33;75.69
65598;SHT31;52267;51.984;20.956;2023-12-28T13:51:01;8.34;75.57
65598;SHT31;52267;51.984;20.956;2023-12-28T13:53:28;8.38;75.61
65598;SHT31;52267;51.984;20.956;2023-12-28T13:55:55;8.38;75.57
65598;SHT31;52267;51.984;20.956;2023-12-28T13:58:22;8.39;75.44
65598;SHT31;52267;51.984;20.956;2023-12-28T14:00:50;8.40;75.47
65598;SHT31;52267;51.984;20.956;2023-12-28T14:03:17;8.40;75.49
65598;SHT31;52267;51.984;20.956;2023-12-28T14:05:44;8.43;75.21
65598;SHT31;52267;51.984;20.956;2023-12-28T14:08:11;8.43;75.27
65598;SHT31;52267;51.984;20.956;2023-12-28T14:10:38;8.44;75.22
65598;SHT31;52267;51.984;20.956;2023-12-28T14:13:05;8.43;75.33
65598;SHT31;52267;51.984;20.956;2023-12-28T14:15:32;8.41;75.24
65598;SHT31;52267;51.984;20.956;2023-12-28T14:17:59;8.39;75.24
65598;SHT31;52267;51.984;20.956;2023-12-28T14:20:26;8.39;75.23
65598;SHT31;52267;51.984;20.956;2023-12-28T14:22:54;8.37;75.18
65598;SHT31;52267;51.984;20.956;2023-12-28T14:25:21;8.34;75.18
65598;SHT31;52267;51.984;20.956;2023-12-28T14:27:49;8.33;75.52
65598;SHT31;52267;51.984;20.956;2023-12-28T14:30:21;8.31;75.44
65598;SHT31;52267;51.984;20.956;2023-12-28T14:32:49;8.30;75.53
65598;SHT31;52267;51.984;20.956;2023-12-28T14:35:16;8.27;75.35
65598;SHT31;52267;51.984;20.956;2023-12-28T14:37:44;8.24;75.37
65598;SHT31;52267;51.984;20.956;2023-12-28T14:40:11;8.21;75.51
65598;SHT31;52267;51.984;20.956;2023-12-28T14:42:38;8.17;75.51
65598;SHT31;52267;51.984;20.956;2023-12-28T14:45:06;8.12;75.42
65598;SHT31;52267;51.984;20.956;2023-12-28T14:47:34;8.06;75.31
65598;SHT31;52267;51.984;20.956;2023-12-28T14:50:02;8.00;75.36
65598;SHT31;52267;51.984;20.956;2023-12-28T14:52:32;7.95;75.40
65598;SHT31;52267;51.984;20.956;2023-12-28T14:54:59;7.89;75.42
65598;SHT31;52267;51.984;20.956;2023-12-28T14:57:26;7.86;75.55
65598;SHT31;52267;51.984;20.956;2023-12-28T14:59:53;7.80;75.51
65598;SHT31;52267;51.984;20.956;2023-12-28T15:02:20;7.78;75.44
65598;SHT31;52267;51.984;20.956;2023-12-28T15:04:47;7.73;75.45
65598;SHT31;52267;51.984;20.956;2023-12-28T15:07:14;7.66;75.39
65598;SHT31;52267;51.984;20.956;2023-12-28T15:09:42;7.61;75.67
65598;SHT31;52267;51.984;20.956;2023-12-28T15:12:10;7.57;75.71
65598;SHT31;52267;51.984;20.956;2023-12-28T15:14:37;7.52;75.67
65598;SHT31;52267;51.984;20.956;2023-12-28T15:17:05;7.49;75.70
65598;SHT31;52267;51.984;20.956;2023-12-28T15:19:34;7.46;75.80
65598;SHT31;52267;51.984;20.956;2023-12-28T15:22:01;7.44;75.81
65598;SHT31;52267;51.984;20.956;2023-12-28T15:24:29;7.44;75.85
65598;SHT31;52267;51.984;20.956;2023-12-28T15:26:56;7.43;75.71
65598;SHT31;52267;51.984;20.956;2023-12-28T15:29:23;7.44;75.81
65598;SHT31;52267;51.984;20.956;2023-12-28T15:31:50;7.42;75.81
65598;SHT31;52267;51.984;20.956;2023-12-28T15:34:17;7.41;75.81